Time;durP1;ratioP1;P1;durP2;ratioP2;P2;SDS_P1;SDS_P2;PMS_P1;PMS_P2;Temp;Humidity;BMP_temperature;BMP_pressure;BME280_temperature;BME280_humidity;BME280_pressure;Samples;Min_cycle;Max_cycle;Signal;HPM_P1;HPM_P2
2022/02/15 00:20:32;;;;;;;10.00;8.02;;;;;;;;;;5158685;27;20082;-61
2022/02/15 00:22:58;;;;;;;8.27;7.47;;;;;;;;;;5176655;27;20165;-61
2022/02/15 00:25:24;;;;;;;8.75;7.80;;;;;;;;;;5179448;27;20428;-60
2022/02/15 00:27:51;;;;;;;8.57;7.65;;;;;;;;;;5178733;27;20094;-61
2022/02/15 00:30:17;;;;;;;9.48;7.47;;;;;;;;;;5179007;27;20165;-61
2022/02/15 00:32:43;;;;;;;8.60;7.72;;;;;;;;;;5179413;27;20209;-61
2022/02/15 00:35:09;;;;;;;9.85;7.75;;;;;;;;;;5179340;27;20164;-61
2022/02/15 00:37:35;;;;;;;8.35;7.25;;;;;;;;;;5178995;27;20168;-61
2022/02/15 00:40:02;;;;;;;8.88;7.80;;;;;;;;;;5178829;27;20066;-61
2022/02/15 00:42:28;;;;;;;9.43;7.97;;;;;;;;;;5179424;27;20085;-61
2022/02/15 00:44:54;;;;;;;8.63;7.60;;;;;;;;;;5179197;27;20087;-62
2022/02/15 00:47:20;;;;;;;8.43;7.50;;;;;;;;;;5159802;27;20473;-61
2022/02/15 00:49:46;;;;;;;10.60;7.90;;;;;;;;;;5178889;27;20078;-61
2022/02/15 00:52:12;;;;;;;9.05;6.97;;;;;;;;;;5178642;27;20131;-61
2022/02/15 00:54:38;;;;;;;9.75;8.13;;;;;;;;;;5179096;27;20512;-60
2022/02/15 00:57:04;;;;;;;11.40;8.77;;;;;;;;;;5178940;27;20124;-61
2022/02/15 00:59:31;;;;;;;8.05;7.25;;;;;;;;;;5176504;27;20501;-67
2022/02/15 01:01:57;;;;;;;9.32;7.80;;;;;;;;;;5178702;27;20449;-67
2022/02/15 01:04:23;;;;;;;8.68;7.78;;;;;;;;;;5179433;27;20094;-68
2022/02/15 01:06:49;;;;;;;8.40;7.60;;;;;;;;;;5125458;27;20102;-67
2022/02/15 01:09:15;;;;;;;8.75;7.75;;;;;;;;;;5160000;27;20175;-65
2022/02/15 01:11:41;;;;;;;10.38;8.20;;;;;;;;;;5159792;27;20077;-65
2022/02/15 01:14:07;;;;;;;10.02;8.05;;;;;;;;;;5160198;27;20082;-65
2022/02/15 01:16:33;;;;;;;10.00;8.45;;;;;;;;;;5179437;27;20164;-66
2022/02/15 01:18:59;;;;;;;9.15;8.25;;;;;;;;;;5159195;27;20082;-67
2022/02/15 01:21:25;;;;;;;10.45;8.38;;;;;;;;;;5178279;27;20428;-66
2022/02/15 01:23:51;;;;;;;11.12;7.78;;;;;;;;;;5158713;27;20094;-66
2022/02/15 01:26:17;;;;;;;10.15;8.32;;;;;;;;;;5177174;27;20497;-65
2022/02/15 01:28:46;;;;;;;10.75;8.68;;;;;;;;;;5178570;27;20067;-67
2022/02/15 01:31:21;;;;;;;8.63;7.72;;;;;;;;;;5143827;27;20418;-68
2022/02/15 01:33:46;;;;;;;10.23;8.27;;;;;;;;;;5161404;27;20182;-67
2022/02/15 01:36:13;;;;;;;11.45;9.00;;;;;;;;;;5161294;27;20094;-67
2022/02/15 01:38:39;;;;;;;12.13;8.88;;;;;;;;;;5180215;27;20078;-67
2022/02/15 01:41:06;;;;;;;10.25;9.23;;;;;;;;;;5161350;27;20168;-67
2022/02/15 01:43:32;;;;;;;10.27;8.75;;;;;;;;;;5180291;27;20184;-67
2022/02/15 01:45:58;;;;;;;9.70;8.63;;;;;;;;;;5161671;27;20187;-67
2022/02/15 01:48:24;;;;;;;10.27;9.15;;;;;;;;;;5161721;27;20070;-66
2022/02/15 01:50:50;;;;;;;12.77;9.32;;;;;;;;;;5179981;27;20171;-68
2022/02/15 01:53:16;;;;;;;11.60;8.60;;;;;;;;;;5179904;27;20097;-68
2022/02/15 01:55:43;;;;;;;9.48;8.38;;;;;;;;;;5180260;27;20179;-68
2022/02/15 01:58:09;;;;;;;9.32;8.02;;;;;;;;;;5180542;27;20081;-68
2022/02/15 02:00:35;;;;;;;9.40;7.95;;;;;;;;;;5160742;27;20504;-68
2022/02/15 02:03:01;;;;;;;10.25;8.75;;;;;;;;;;5160890;27;20159;-67
2022/02/15 02:08:12;;;;;;;11.32;9.45;;;;;;;;;;5180116;27;20062;-67
2022/02/15 02:10:38;;;;;;;14.38;8.40;;;;;;;;;;5160645;27;20090;-67
2022/02/15 02:13:04;;;;;;;11.50;8.77;;;;;;;;;;5161154;27;20488;-67
2022/02/15 02:15:30;;;;;;;10.75;9.65;;;;;;;;;;5180142;27;20105;-67
2022/02/15 02:17:58;;;;;;;11.35;9.68;;;;;;;;;;5180219;27;20074;-67
2022/02/15 02:20:24;;;;;;;10.43;9.30;;;;;;;;;;5160435;27;20160;-68
2022/02/15 02:22:50;;;;;;;10.60;9.50;;;;;;;;;;5180245;27;20570;-69
2022/02/15 02:25:18;;;;;;;12.40;9.75;;;;;;;;;;5179927;27;20085;-69
2022/02/15 02:27:44;;;;;;;11.82;10.20;;;;;;;;;;5161397;27;20472;-68
2022/02/15 02:30:10;;;;;;;11.73;9.85;;;;;;;;;;5177850;27;20086;-68
2022/02/15 02:32:37;;;;;;;11.80;9.65;;;;;;;;;;5160985;27;20074;-67
2022/02/15 02:35:05;;;;;;;11.18;9.93;;;;;;;;;;5179718;27;20501;-69
2022/02/15 02:37:31;;;;;;;11.30;9.77;;;;;;;;;;5161130;27;20179;-68
2022/02/15 02:39:58;;;;;;;10.18;9.05;;;;;;;;;;5143025;27;20386;-68
2022/02/15 02:42:26;;;;;;;12.30;9.73;;;;;;;;;;5178296;27;20544;-69
2022/02/15 02:45:04;;;;;;;11.05;9.13;;;;;;;;;;5179928;27;20055;-69
2022/02/15 02:47:30;;;;;;;11.60;10.10;;;;;;;;;;5161319;27;20534;-69
2022/02/15 02:49:56;;;;;;;11.50;10.32;;;;;;;;;;5178016;27;20505;-69
2022/02/15 02:52:23;;;;;;;12.25;9.93;;;;;;;;;;5177744;27;20179;-69
2022/02/15 02:54:50;;;;;;;13.15;10.07;;;;;;;;;;5179770;27;20061;-69
2022/02/15 02:57:16;;;;;;;11.75;9.93;;;;;;;;;;5179879;27;20078;-69
2022/02/15 02:59:46;;;;;;;12.10;10.32;;;;;;;;;;5179661;27;20073;-68
2022/02/15 03:02:12;;;;;;;11.18;10.05;;;;;;;;;;5161165;27;20085;-69
2022/02/15 03:04:40;;;;;;;12.13;10.90;;;;;;;;;;5143664;27;20078;-69
2022/02/15 03:07:06;;;;;;;13.38;11.30;;;;;;;;;;5177795;27;20090;-69
2022/02/15 03:09:32;;;;;;;13.05;10.25;;;;;;;;;;5179631;27;20093;-69
2022/02/15 03:11:58;;;;;;;13.62;10.40;;;;;;;;;;5160294;27;20097;-69
2022/02/15 03:14:24;;;;;;;11.40;10.20;;;;;;;;;;5161052;27;20081;-68
2022/02/15 03:16:51;;;;;;;11.93;10.48;;;;;;;;;;5160820;27;20477;-69
2022/02/15 03:19:17;;;;;;;12.48;10.38;;;;;;;;;;5160860;27;20156;-69
2022/02/15 03:21:43;;;;;;;11.82;10.63;;;;;;;;;;5160037;27;20118;-71
2022/02/15 03:24:09;;;;;;;12.30;10.75;;;;;;;;;;5179643;27;20097;-69
2022/02/15 03:26:35;;;;;;;13.15;11.50;;;;;;;;;;5179624;27;20089;-68
2022/02/15 03:29:01;;;;;;;11.90;10.38;;;;;;;;;;5179352;27;20094;-68
2022/02/15 03:31:27;;;;;;;13.95;11.55;;;;;;;;;;5179277;27;20070;-68
2022/02/15 03:33:53;;;;;;;12.65;11.15;;;;;;;;;;5177739;27;20066;-68
2022/02/15 03:36:19;;;;;;;11.98;10.32;;;;;;;;;;5179695;27;20077;-68
2022/02/15 03:38:46;;;;;;;14.25;10.90;;;;;;;;;;5179540;27;20156;-69
2022/02/15 03:43:57;;;;;;;13.43;11.20;;;;;;;;;;5179584;27;20525;-69
2022/02/15 03:46:23;;;;;;;13.45;11.00;;;;;;;;;;5179856;27;20127;-70
2022/02/15 03:48:50;;;;;;;12.93;10.40;;;;;;;;;;5177637;27;20085;-69
2022/02/15 03:51:16;;;;;;;12.45;11.02;;;;;;;;;;5179505;27;20085;-69
2022/02/15 03:53:42;;;;;;;12.90;11.60;;;;;;;;;;5159751;27;20082;-69
2022/02/15 03:56:10;;;;;;;11.93;10.68;;;;;;;;;;5179554;27;20082;-69
2022/02/15 03:58:36;;;;;;;11.63;10.45;;;;;;;;;;5160331;27;20112;-70
2022/02/15 04:01:04;;;;;;;13.25;11.95;;;;;;;;;;5159882;27;20082;-69
2022/02/15 04:03:30;;;;;;;12.77;11.45;;;;;;;;;;5125878;27;20618;-71
2022/02/15 04:05:56;;;;;;;13.65;11.20;;;;;;;;;;5160426;27;20163;-75
2022/02/15 04:08:22;;;;;;;14.35;11.88;;;;;;;;;;5177766;27;20133;-71
2022/02/15 04:10:49;;;;;;;12.90;11.55;;;;;;;;;;5159756;27;20063;-70
2022/02/15 04:13:16;;;;;;;12.70;11.07;;;;;;;;;;5177389;27;20494;-70
2022/02/15 04:15:42;;;;;;;12.68;10.75;;;;;;;;;;5160250;27;20069;-70
2022/02/15 04:18:08;;;;;;;15.82;11.38;;;;;;;;;;5179727;27;20147;-71
2022/02/15 04:20:34;;;;;;;14.35;12.32;;;;;;;;;;5178935;27;20088;-70
2022/02/15 04:23:00;;;;;;;13.27;11.88;;;;;;;;;;5177898;27;20097;-70
2022/02/15 04:25:26;;;;;;;13.35;11.95;;;;;;;;;;5160064;27;20057;-70
2022/02/15 04:27:52;;;;;;;14.48;11.77;;;;;;;;;;5179763;27;20065;-70
2022/02/15 04:30:18;;;;;;;13.20;11.77;;;;;;;;;;5178944;27;20108;-70
2022/02/15 04:32:45;;;;;;;13.43;11.70;;;;;;;;;;5177643;27;20078;-70
2022/02/15 04:35:11;;;;;;;12.60;11.18;;;;;;;;;;5179304;27;20493;-70
2022/02/15 04:37:37;;;;;;;12.85;11.55;;;;;;;;;;5179683;27;20089;-70
2022/02/15 04:40:06;;;;;;;12.32;11.12;;;;;;;;;;5159852;27;20509;-71
2022/02/15 04:42:32;;;;;;;14.00;11.82;;;;;;;;;;5179047;27;20270;-70
2022/02/15 04:44:58;;;;;;;14.57;12.50;;;;;;;;;;5159447;27;20485;-70
2022/02/15 04:47:24;;;;;;;13.73;12.00;;;;;;;;;;5177584;27;20101;-70
2022/02/15 04:49:50;;;;;;;13.80;11.75;;;;;;;;;;5177193;27;20155;-71
2022/02/15 04:52:16;;;;;;;14.80;11.18;;;;;;;;;;5178397;27;20062;-70
2022/02/15 04:54:42;;;;;;;13.88;12.48;;;;;;;;;;5178995;27;20174;-71
2022/02/15 04:57:08;;;;;;;14.98;12.70;;;;;;;;;;5179236;27;20156;-69
2022/02/15 04:59:35;;;;;;;13.27;11.70;;;;;;;;;;5159854;27;20177;-67
2022/02/15 05:02:01;;;;;;;13.77;12.32;;;;;;;;;;5159795;27;20109;-72
2022/02/15 05:07:11;;;;;;;13.82;12.25;;;;;;;;;;5180468;27;20070;-72
2022/02/15 05:09:37;;;;;;;13.98;11.85;;;;;;;;;;5180581;27;20476;-70
2022/02/15 05:12:04;;;;;;;13.30;11.50;;;;;;;;;;5180574;27;20100;-71
2022/02/15 05:14:30;;;;;;;15.77;12.40;;;;;;;;;;5180786;27;20066;-71
2022/02/15 05:16:56;;;;;;;15.73;13.27;;;;;;;;;;5161554;27;20076;-71
2022/02/15 05:19:22;;;;;;;14.65;12.10;;;;;;;;;;5162468;27;20074;-72
2022/02/15 05:21:48;;;;;;;13.95;12.23;;;;;;;;;;5178968;27;20409;-74
2022/02/15 05:24:14;;;;;;;12.93;11.60;;;;;;;;;;5179230;27;20402;-74
2022/02/15 05:26:40;;;;;;;16.30;12.35;;;;;;;;;;5180897;27;20109;-73
2022/02/15 05:29:06;;;;;;;15.05;12.73;;;;;;;;;;5162000;27;20077;-72
2022/02/15 05:31:32;;;;;;;14.93;13.07;;;;;;;;;;5180919;27;20090;-73
2022/02/15 05:33:58;;;;;;;14.10;12.63;;;;;;;;;;5161936;27;20098;-72
2022/02/15 05:36:24;;;;;;;13.80;12.40;;;;;;;;;;5180815;27;20171;-73
2022/02/15 05:38:50;;;;;;;13.82;12.37;;;;;;;;;;5181297;27;20091;-74
2022/02/15 05:41:16;;;;;;;15.85;12.48;;;;;;;;;;5181044;27;20077;-73
2022/02/15 05:43:42;;;;;;;14.50;11.88;;;;;;;;;;5161666;27;20310;-73
2022/02/15 05:46:08;;;;;;;13.30;11.80;;;;;;;;;;5161687;27;20184;-73
2022/02/15 05:48:34;;;;;;;15.63;12.43;;;;;;;;;;5180460;27;20406;-72
2022/02/15 05:51:00;;;;;;;14.50;12.82;;;;;;;;;;5180523;27;20078;-74
2022/02/15 05:53:29;;;;;;;13.65;12.15;;;;;;;;;;5181083;27;20070;-73
2022/02/15 05:55:58;;;;;;;14.30;12.60;;;;;;;;;;5161591;27;20088;-73
2022/02/15 05:58:25;;;;;;;14.20;12.68;;;;;;;;;;5162058;27;20050;-72
2022/02/15 06:00:51;;;;;;;13.75;12.35;;;;;;;;;;5179094;27;20077;-72
2022/02/15 06:06:02;;;;;;;17.60;12.85;;;;;;;;;;5180433;27;20074;-72
2022/02/15 06:08:28;;;;;;;14.82;13.23;;;;;;;;;;5161703;27;20085;-72
2022/02/15 06:10:54;;;;;;;14.77;12.52;;;;;;;;;;5157730;27;20105;-72
2022/02/15 06:13:20;;;;;;;14.15;12.65;;;;;;;;;;5180060;27;20162;-72
2022/02/15 06:15:47;;;;;;;14.95;13.45;;;;;;;;;;5180387;27;20096;-72
2022/02/15 06:18:13;;;;;;;13.73;12.10;;;;;;;;;;5144212;27;20611;-72
2022/02/15 06:20:40;;;;;;;16.70;13.85;;;;;;;;;;5180207;27;20074;-72
2022/02/15 06:23:07;;;;;;;14.63;13.13;;;;;;;;;;5180616;27;20068;-71
2022/02/15 06:25:33;;;;;;;14.90;12.05;;;;;;;;;;5161878;27;20096;-72
2022/02/15 06:28:00;;;;;;;15.40;12.27;;;;;;;;;;5161811;27;20089;-69
2022/02/15 06:30:26;;;;;;;14.57;13.07;;;;;;;;;;5180483;27;20110;-72
2022/02/15 06:32:52;;;;;;;13.52;11.95;;;;;;;;;;5178716;27;20176;-72
2022/02/15 06:35:18;;;;;;;13.77;12.13;;;;;;;;;;5178212;27;20124;-68
2022/02/15 06:37:47;;;;;;;16.10;12.70;;;;;;;;;;5180080;27;20165;-68
2022/02/15 06:40:14;;;;;;;13.48;12.18;;;;;;;;;;5179943;27;20092;-70
2022/02/15 06:42:42;;;;;;;14.70;13.07;;;;;;;;;;5161166;27;20082;-68
2022/02/15 06:45:08;;;;;;;14.25;12.85;;;;;;;;;;5178320;27;20155;-71
2022/02/15 06:47:35;;;;;;;15.00;13.15;;;;;;;;;;5178141;27;20090;-70
2022/02/15 06:50:02;;;;;;;14.60;12.93;;;;;;;;;;5179663;27;20128;-67
2022/02/15 06:52:28;;;;;;;13.62;12.20;;;;;;;;;;5160980;27;20086;-68
2022/02/15 06:54:55;;;;;;;16.08;12.02;;;;;;;;;;5160988;27;20077;-68
2022/02/15 06:57:21;;;;;;;13.75;12.18;;;;;;;;;;5160316;27;20070;-68
2022/02/15 06:59:49;;;;;;;14.10;12.63;;;;;;;;;;5160797;27;20550;-65
2022/02/15 07:02:18;;;;;;;14.85;13.25;;;;;;;;;;5179409;27;20077;-68
2022/02/15 07:04:48;;;;;;;14.25;12.40;;;;;;;;;;5178241;27;20094;-68
2022/02/15 07:07:14;;;;;;;14.93;13.10;;;;;;;;;;5179406;27;20101;-69
2022/02/15 07:09:41;;;;;;;15.18;12.93;;;;;;;;;;5160362;27;20090;-69
2022/02/15 07:12:08;;;;;;;14.48;12.10;;;;;;;;;;5179495;27;20525;-68
2022/02/15 07:14:35;;;;;;;14.55;13.05;;;;;;;;;;5178504;27;20093;-71
2022/02/15 07:17:01;;;;;;;14.82;12.30;;;;;;;;;;5177883;27;20124;-73
2022/02/15 07:19:32;;;;;;;15.98;13.80;;;;;;;;;;5179726;27;20179;-73
2022/02/15 07:21:59;;;;;;;15.25;13.65;;;;;;;;;;5160028;27;20575;-73
2022/02/15 07:24:25;;;;;;;14.23;12.73;;;;;;;;;;5160728;27;20077;-72
2022/02/15 07:26:52;;;;;;;14.90;12.70;;;;;;;;;;5160224;27;20132;-74
2022/02/15 07:29:18;;;;;;;14.00;12.57;;;;;;;;;;5177954;27;20169;-73
2022/02/15 07:31:44;;;;;;;14.73;12.25;;;;;;;;;;5177462;27;20097;-73
2022/02/15 07:34:10;;;;;;;13.65;12.35;;;;;;;;;;5179726;27;20086;-73
2022/02/15 07:36:36;;;;;;;14.07;12.27;;;;;;;;;;5178116;27;20739;-69
2022/02/15 07:39:02;;;;;;;15.10;13.40;;;;;;;;;;5160374;27;20085;-70
2022/02/15 07:41:29;;;;;;;14.95;12.77;;;;;;;;;;5160269;27;20090;-70
2022/02/15 07:43:56;;;;;;;14.02;12.63;;;;;;;;;;5160879;27;20544;-69
2022/02/15 07:46:23;;;;;;;13.60;11.93;;;;;;;;;;5160647;27;20096;-68
2022/02/15 07:48:49;;;;;;;13.90;12.45;;;;;;;;;;5143391;27;20097;-74
2022/02/15 07:51:18;;;;;;;15.68;13.18;;;;;;;;;;5177750;27;20096;-75
2022/02/15 07:53:44;;;;;;;14.40;12.68;;;;;;;;;;5144081;27;20073;-76
2022/02/15 07:56:11;;;;;;;13.80;12.40;;;;;;;;;;5160675;27;20488;-74
2022/02/15 07:58:37;;;;;;;14.27;12.70;;;;;;;;;;5160916;27;20078;-72
2022/02/15 08:01:04;;;;;;;15.80;12.40;;;;;;;;;;5142778;27;20082;-72
2022/02/15 08:03:31;;;;;;;14.05;12.55;;;;;;;;;;5160584;27;20109;-73
2022/02/15 08:05:57;;;;;;;13.60;12.15;;;;;;;;;;5179594;27;20076;-73
2022/02/15 08:08:23;;;;;;;14.43;12.93;;;;;;;;;;5179762;27;20098;-73
2022/02/15 08:10:49;;;;;;;14.75;13.15;;;;;;;;;;5159452;27;20094;-73
2022/02/15 08:13:18;;;;;;;14.45;12.50;;;;;;;;;;5143558;27;20057;-71
2022/02/15 08:15:51;;;;;;;14.75;12.57;;;;;;;;;;5160380;27;20167;-73
2022/02/15 08:18:18;;;;;;;14.80;12.90;;;;;;;;;;5161223;27;20398;-71
2022/02/15 08:20:44;;;;;;;15.43;13.35;;;;;;;;;;5178600;27;20069;-73
2022/02/15 08:23:10;;;;;;;15.75;13.20;;;;;;;;;;5160578;27;20090;-71
2022/02/15 08:25:37;;;;;;;15.85;13.30;;;;;;;;;;5177658;27;20085;-73
2022/02/15 08:28:03;;;;;;;18.85;14.60;;;;;;;;;;5178186;27;20054;-72
2022/02/15 08:30:29;;;;;;;16.17;13.50;;;;;;;;;;5178845;27;20074;-73
2022/02/15 08:32:55;;;;;;;15.80;14.15;;;;;;;;;;5177925;27;20082;-70
2022/02/15 08:35:21;;;;;;;14.63;13.10;;;;;;;;;;5179396;27;20074;-73
2022/02/15 08:37:47;;;;;;;15.93;12.93;;;;;;;;;;5160998;27;20074;-71
2022/02/15 08:40:14;;;;;;;15.57;13.13;;;;;;;;;;5159763;27;20113;-72
2022/02/15 08:42:40;;;;;;;15.00;13.35;;;;;;;;;;5179934;27;20144;-72
2022/02/15 08:45:07;;;;;;;18.40;13.98;;;;;;;;;;5179305;27;20109;-72
2022/02/15 08:47:34;;;;;;;15.57;13.52;;;;;;;;;;5179499;27;20093;-68
2022/02/15 08:50:00;;;;;;;16.05;13.73;;;;;;;;;;5177259;27;20504;-72
2022/02/15 08:52:30;;;;;;;13.73;12.27;;;;;;;;;;5178713;27;20089;-70
2022/02/15 08:54:56;;;;;;;13.70;12.23;;;;;;;;;;5179343;27;20085;-71
2022/02/15 08:57:22;;;;;;;16.30;12.95;;;;;;;;;;5177402;27;20090;-72
2022/02/15 08:59:53;;;;;;;15.40;13.57;;;;;;;;;;5160551;27;20076;-73
2022/02/15 09:02:23;;;;;;;14.45;12.90;;;;;;;;;;5177429;27;20074;-71
2022/02/15 09:04:50;;;;;;;13.60;12.20;;;;;;;;;;5160544;27;20164;-72
2022/02/15 09:07:17;;;;;;;18.00;13.18;;;;;;;;;;5159819;27;20263;-72
2022/02/15 09:09:44;;;;;;;13.40;11.82;;;;;;;;;;5160005;27;20106;-75
2022/02/15 09:12:10;;;;;;;14.50;12.52;;;;;;;;;;5142265;27;20082;-72
2022/02/15 09:14:37;;;;;;;14.02;12.52;;;;;;;;;;5143172;27;20124;-73
2022/02/15 09:17:04;;;;;;;13.62;12.23;;;;;;;;;;5159592;27;20180;-72
2022/02/15 09:19:30;;;;;;;15.05;12.88;;;;;;;;;;5160432;27;20094;-73
2022/02/15 09:21:56;;;;;;;16.77;11.82;;;;;;;;;;5178067;27;20071;-72
2022/02/15 09:24:23;;;;;;;16.40;13.32;;;;;;;;;;5160367;27;20070;-71
2022/02/15 09:26:49;;;;;;;16.70;12.88;;;;;;;;;;5159448;27;20090;-69
2022/02/15 09:29:16;;;;;;;15.48;12.18;;;;;;;;;;5178986;27;20105;-72
2022/02/15 09:31:42;;;;;;;14.95;12.60;;;;;;;;;;5140576;27;20524;-73
2022/02/15 09:34:09;;;;;;;16.12;12.55;;;;;;;;;;5160123;27;20169;-73
2022/02/15 09:36:36;;;;;;;14.13;11.98;;;;;;;;;;5159311;27;20461;-71
2022/02/15 09:39:06;;;;;;;15.25;13.65;;;;;;;;;;5178004;27;20488;-77
2022/02/15 09:41:35;;;;;;;15.30;12.90;;;;;;;;;;5176913;27;20089;-71
2022/02/15 09:44:01;;;;;;;15.18;12.60;;;;;;;;;;5175596;27;20171;-74
2022/02/15 09:46:28;;;;;;;14.73;12.40;;;;;;;;;;5177090;27;20086;-75
2022/02/15 09:48:55;;;;;;;14.40;12.10;;;;;;;;;;5175797;27;20164;-74
2022/02/15 09:51:25;;;;;;;15.02;12.37;;;;;;;;;;5159627;27;20433;-75
2022/02/15 09:53:52;;;;;;;13.93;12.48;;;;;;;;;;5178423;27;20160;-75
2022/02/15 09:56:18;;;;;;;12.85;11.48;;;;;;;;;;5161128;27;20101;-75
2022/02/15 09:58:44;;;;;;;13.93;12.02;;;;;;;;;;5180525;27;20503;-74
2022/02/15 10:01:14;;;;;;;16.60;11.65;;;;;;;;;;5160955;27;20168;-74
2022/02/15 10:03:58;;;;;;;14.30;11.98;;;;;;;;;;5143462;27;20173;-75
2022/02/15 10:06:31;;;;;;;14.90;12.32;;;;;;;;;;5180077;27;20094;-68
2022/02/15 10:09:02;;;;;;;14.55;12.57;;;;;;;;;;5177876;27;20102;-67
2022/02/15 10:11:39;;;;;;;15.95;11.57;;;;;;;;;;5175376;27;20098;-67
2022/02/15 10:14:06;;;;;;;13.90;11.68;;;;;;;;;;5175585;27;20100;-68
2022/02/15 10:16:32;;;;;;;12.70;11.35;;;;;;;;;;5175791;27;20183;-67
2022/02/15 10:18:59;;;;;;;13.13;11.65;;;;;;;;;;5176109;27;20106;-68
2022/02/15 10:21:28;;;;;;;14.13;12.60;;;;;;;;;;5173696;27;20115;-68
2022/02/15 10:23:56;;;;;;;16.85;14.98;;;;;;;;;;5175918;27;20177;-67
2022/02/15 10:26:23;;;;;;;13.62;11.93;;;;;;;;;;5175408;27;20101;-67
2022/02/15 10:28:49;;;;;;;15.85;12.73;;;;;;;;;;5175927;27;20181;-67
2022/02/15 10:31:15;;;;;;;14.77;11.68;;;;;;;;;;5175400;27;20093;-67
2022/02/15 10:33:45;;;;;;;14.98;12.18;;;;;;;;;;5177344;27;20472;-67
2022/02/15 10:36:13;;;;;;;14.77;11.82;;;;;;;;;;5177486;27;20160;-66
2022/02/15 10:38:57;;;;;;;15.65;12.00;;;;;;;;;;5177941;27;20092;-67
2022/02/15 10:41:25;;;;;;;14.07;12.60;;;;;;;;;;5176679;27;20094;-68
2022/02/15 10:43:56;;;;;;;13.82;12.15;;;;;;;;;;5176307;27;20161;-68
2022/02/15 10:46:24;;;;;;;14.18;11.77;;;;;;;;;;5156715;27;20094;-67
2022/02/15 10:48:51;;;;;;;14.48;12.02;;;;;;;;;;5175608;27;20101;-67
2022/02/15 10:51:17;;;;;;;13.20;11.90;;;;;;;;;;5159354;27;20101;-67
2022/02/15 10:53:44;;;;;;;14.10;12.35;;;;;;;;;;5180000;27;20166;-66
2022/02/15 10:56:10;;;;;;;16.10;11.82;;;;;;;;;;5179718;27;20497;-66
2022/02/15 10:58:37;;;;;;;17.00;12.70;;;;;;;;;;5180016;27;20089;-68
2022/02/15 11:01:05;;;;;;;12.37;11.15;;;;;;;;;;5177725;27;20480;-67
2022/02/15 11:03:37;;;;;;;15.38;11.57;;;;;;;;;;5161059;27;20169;-65
2022/02/15 11:06:04;;;;;;;13.62;11.95;;;;;;;;;;5179681;27;20086;-71
2022/02/15 11:08:31;;;;;;;14.75;12.45;;;;;;;;;;5179781;27;20520;-67
2022/02/15 11:11:10;;;;;;;13.48;12.02;;;;;;;;;;5179608;27;20077;-66
2022/02/15 11:13:38;;;;;;;14.60;13.00;;;;;;;;;;5161134;27;20094;-66
2022/02/15 11:16:21;;;;;;;15.05;12.55;;;;;;;;;;5160509;27;20071;-66
2022/02/15 11:18:47;;;;;;;13.48;11.85;;;;;;;;;;5179872;27;20097;-67
2022/02/15 11:21:24;;;;;;;16.02;11.70;;;;;;;;;;5179589;27;20117;-66
2022/02/15 11:24:01;;;;;;;14.68;12.02;;;;;;;;;;5161401;27;20073;-66
2022/02/15 11:26:33;;;;;;;15.20;11.55;;;;;;;;;;5160488;27;20113;-63
2022/02/15 11:28:59;;;;;;;13.82;12.15;;;;;;;;;;5179876;27;20066;-64
2022/02/15 11:31:30;;;;;;;13.48;11.95;;;;;;;;;;5179692;27;20530;-63
2022/02/15 11:33:57;;;;;;;13.77;12.18;;;;;;;;;;5160821;27;20077;-64
2022/02/15 11:36:24;;;;;;;16.33;13.02;;;;;;;;;;5179988;27;20138;-63
2022/02/15 11:39:00;;;;;;;16.35;12.30;;;;;;;;;;5179826;27;20078;-63
2022/02/15 11:41:29;;;;;;;14.98;12.10;;;;;;;;;;5179334;27;20105;-62
2022/02/15 11:44:00;;;;;;;14.02;11.98;;;;;;;;;;5160701;27;20097;-64
2022/02/15 11:46:31;;;;;;;12.40;10.82;;;;;;;;;;5179700;27;20077;-64
2022/02/15 11:49:08;;;;;;;14.30;11.68;;;;;;;;;;5160420;27;20086;-63
2022/02/15 11:51:35;;;;;;;16.37;12.20;;;;;;;;;;5179511;27;20144;-62
2022/02/15 11:54:01;;;;;;;14.32;11.52;;;;;;;;;;5179615;27;20077;-62
2022/02/15 11:56:28;;;;;;;14.35;12.70;;;;;;;;;;5177770;27;20501;-64
2022/02/15 11:58:56;;;;;;;15.30;13.07;;;;;;;;;;5177876;27;20074;-63
2022/02/15 12:01:27;;;;;;;12.50;11.20;;;;;;;;;;5179409;27;20489;-63
2022/02/15 12:03:54;;;;;;;15.18;11.57;;;;;;;;;;5179476;27;20141;-62
2022/02/15 12:06:22;;;;;;;13.35;11.40;;;;;;;;;;5179537;27;20438;-63
2022/02/15 12:08:58;;;;;;;14.98;11.88;;;;;;;;;;5160635;27;20154;-64
2022/02/15 12:11:35;;;;;;;12.82;11.45;;;;;;;;;;5160229;27;20077;-64
2022/02/15 12:14:11;;;;;;;15.18;12.50;;;;;;;;;;5178126;27;20077;-64
2022/02/15 12:16:47;;;;;;;14.75;12.07;;;;;;;;;;5178509;27;20085;-65
2022/02/15 12:19:31;;;;;;;12.75;11.45;;;;;;;;;;5179468;27;20078;-65
2022/02/15 12:22:03;;;;;;;13.27;11.68;;;;;;;;;;5177909;27;20150;-64
2022/02/15 12:24:31;;;;;;;14.70;11.52;;;;;;;;;;5179621;27;20075;-65
2022/02/15 12:26:58;;;;;;;13.10;10.68;;;;;;;;;;5179274;27;20078;-64
2022/02/15 12:29:25;;;;;;;13.95;11.55;;;;;;;;;;5177347;27;20074;-65
2022/02/15 12:31:56;;;;;;;14.20;12.52;;;;;;;;;;5178961;27;20089;-65
2022/02/15 12:34:22;;;;;;;13.18;11.40;;;;;;;;;;5160656;27;20116;-64
2022/02/15 12:36:48;;;;;;;15.15;11.20;;;;;;;;;;5179120;27;20187;-65
2022/02/15 12:39:15;;;;;;;16.00;14.10;;;;;;;;;;5160267;27;20096;-65
2022/02/15 12:41:43;;;;;;;15.45;11.77;;;;;;;;;;5179208;27;20163;-65
2022/02/15 12:44:09;;;;;;;15.40;12.60;;;;;;;;;;5177806;27;20109;-65
2022/02/15 12:46:35;;;;;;;14.57;11.48;;;;;;;;;;5179090;27;20094;-65
2022/02/15 12:49:03;;;;;;;14.05;12.13;;;;;;;;;;5179360;27;20070;-65
2022/02/15 12:51:33;;;;;;;13.62;12.18;;;;;;;;;;5178723;27;20081;-65
2022/02/15 12:54:00;;;;;;;15.93;12.35;;;;;;;;;;5160765;27;20058;-65
2022/02/15 12:56:31;;;;;;;15.95;12.02;;;;;;;;;;5159762;27;20390;-66
2022/02/15 12:59:04;;;;;;;13.18;11.82;;;;;;;;;;5139414;27;20490;-62
2022/02/15 13:01:34;;;;;;;14.50;12.20;;;;;;;;;;5178884;27;20058;-64
2022/02/15 13:04:01;;;;;;;13.05;11.48;;;;;;;;;;5142113;27;20073;-65
2022/02/15 13:06:27;;;;;;;15.13;12.57;;;;;;;;;;5142346;27;20070;-64
2022/02/15 13:08:55;;;;;;;14.05;11.80;;;;;;;;;;5175234;27;20087;-64
2022/02/15 13:11:26;;;;;;;15.60;11.95;;;;;;;;;;5176447;27;20085;-64
2022/02/15 13:13:53;;;;;;;14.60;12.65;;;;;;;;;;5176031;27;20135;-64
2022/02/15 13:16:19;;;;;;;13.40;10.93;;;;;;;;;;5177403;27;20097;-64
2022/02/15 13:18:48;;;;;;;14.18;11.90;;;;;;;;;;5140453;27;20087;-66
2022/02/15 13:21:22;;;;;;;14.40;12.35;;;;;;;;;;5158224;27;20089;-64
2022/02/15 13:24:00;;;;;;;22.52;17.87;;;;;;;;;;5178267;27;20069;-64
2022/02/15 13:26:33;;;;;;;16.33;13.02;;;;;;;;;;5180140;27;20165;-63
2022/02/15 13:29:00;;;;;;;14.60;12.27;;;;;;;;;;5178951;27;20169;-64
2022/02/15 13:31:26;;;;;;;13.27;11.85;;;;;;;;;;5180206;27;20105;-64
2022/02/15 13:33:55;;;;;;;17.02;13.00;;;;;;;;;;5180392;27;20061;-65
2022/02/15 13:36:34;;;;;;;13.65;11.98;;;;;;;;;;5179363;27;20502;-64
2022/02/15 13:39:00;;;;;;;13.88;12.32;;;;;;;;;;5160872;27;20098;-64
2022/02/15 13:41:27;;;;;;;16.08;13.88;;;;;;;;;;5179991;27;20165;-64
2022/02/15 13:44:02;;;;;;;13.65;12.23;;;;;;;;;;5161234;27;20153;-64
2022/02/15 13:46:33;;;;;;;15.47;13.80;;;;;;;;;;5161253;27;20074;-63
2022/02/15 13:49:00;;;;;;;14.55;12.85;;;;;;;;;;5179945;27;20109;-63
2022/02/15 13:51:27;;;;;;;15.05;12.05;;;;;;;;;;5178490;27;20066;-63
2022/02/15 13:54:04;;;;;;;15.23;12.70;;;;;;;;;;5179905;27;20174;-63
2022/02/15 13:56:30;;;;;;;13.77;12.23;;;;;;;;;;5179916;27;20470;-63
2022/02/15 13:58:56;;;;;;;13.95;11.77;;;;;;;;;;5160885;27;20086;-63
2022/02/15 14:01:22;;;;;;;17.55;12.30;;;;;;;;;;5160772;27;20722;-63
2022/02/15 14:03:50;;;;;;;13.60;12.20;;;;;;;;;;5179789;27;20089;-64
2022/02/15 14:06:18;;;;;;;15.40;12.65;;;;;;;;;;5180045;27;20095;-63
2022/02/15 14:08:45;;;;;;;14.85;12.35;;;;;;;;;;5180243;27;20097;-62
2022/02/15 14:11:11;;;;;;;14.30;12.35;;;;;;;;;;5179883;27;20160;-62
2022/02/15 14:13:37;;;;;;;14.10;12.10;;;;;;;;;;5179915;27;20465;-63
2022/02/15 14:16:03;;;;;;;14.48;12.93;;;;;;;;;;5160961;27;20105;-63
2022/02/15 14:18:30;;;;;;;15.38;12.98;;;;;;;;;;5178572;27;20069;-62
2022/02/15 14:20:56;;;;;;;15.38;12.40;;;;;;;;;;5179499;27;20074;-61
2022/02/15 14:23:22;;;;;;;14.20;12.73;;;;;;;;;;5179550;27;20164;-61
2022/02/15 14:25:48;;;;;;;14.60;13.10;;;;;;;;;;5180100;27;20119;-61
2022/02/15 14:28:14;;;;;;;14.02;12.57;;;;;;;;;;5177818;27;20101;-62
2022/02/15 14:30:43;;;;;;;14.55;13.05;;;;;;;;;;5179899;27;20088;-60
2022/02/15 14:33:09;;;;;;;13.90;11.93;;;;;;;;;;5179255;27;20074;-61
2022/02/15 14:35:36;;;;;;;15.75;13.25;;;;;;;;;;5177927;27;20398;-62
2022/02/15 14:38:04;;;;;;;16.55;13.45;;;;;;;;;;5160442;27;20485;-62
2022/02/15 14:40:34;;;;;;;14.38;12.45;;;;;;;;;;5179764;27;20081;-62
2022/02/15 14:43:01;;;;;;;17.33;13.40;;;;;;;;;;5160383;27;20097;-61
2022/02/15 14:45:27;;;;;;;14.35;12.55;;;;;;;;;;5179374;27;20093;-61
2022/02/15 14:47:53;;;;;;;15.05;13.45;;;;;;;;;;5178134;27;20104;-62
2022/02/15 14:50:19;;;;;;;14.98;12.40;;;;;;;;;;5178883;27;20418;-62
2022/02/15 14:52:46;;;;;;;15.90;12.90;;;;;;;;;;5179289;27;20090;-62